Time;durP1;ratioP1;P1;durP2;ratioP2;P2;SDS_P1;SDS_P2;PMS_P1;PMS_P2;Temp;Humidity;BMP_temperature;BMP_pressure;BME280_temperature;BME280_humidity;BME280_pressure;Samples;Min_cycle;Max_cycle;Signal;HPM_P1;HPM_P2
2022/07/21 11:41:25;;;;;;;13.63;12.57;;;25.80;99.90;;;;;;5093170;27;20573;-69
2022/07/21 11:43:52;;;;;;;12.83;11.73;;;25.80;99.90;;;;;;5086044;28;20455;-69
2022/07/21 11:46:18;;;;;;;12.33;11.53;;;25.90;99.90;;;;;;5080198;28;20483;-68
2022/07/21 11:48:45;;;;;;;10.43;9.70;;;26.10;99.90;;;;;;5066102;28;20460;-68
2022/07/21 11:51:13;;;;;;;9.90;9.20;;;26.50;99.90;;;;;;5069146;28;20471;-69
2022/07/21 11:53:44;;;;;;;10.47;9.87;;;26.60;99.90;;;;;;5066088;28;20464;-68
2022/07/21 11:56:14;;;;;;;10.43;9.73;;;26.70;99.90;;;;;;5067998;28;20622;-68
2022/07/21 11:58:42;;;;;;;10.13;9.53;;;26.70;99.90;;;;;;5063121;28;20460;-68
2022/07/21 12:01:10;;;;;;;8.40;8.00;;;27.00;99.90;;;;;;5067062;28;20488;-68
2022/07/21 12:03:48;;;;;;;8.60;8.10;;;27.20;99.90;;;;;;5065546;28;20657;-69
2022/07/21 12:06:15;;;;;;;8.70;8.30;;;27.40;99.90;;;;;;5067396;28;20480;-68
2022/07/21 12:08:43;;;;;;;6.93;6.43;;;27.40;99.90;;;;;;5065328;28;20982;-69
2022/07/21 12:11:12;;;;;;;6.50;6.10;;;27.30;99.90;;;;;;5065829;28;20513;-67
2022/07/21 12:13:56;;;;;;;6.57;6.17;;;27.20;99.90;;;;;;5066024;28;20470;-71
2022/07/21 12:16:24;;;;;;;7.97;7.27;;;27.10;99.90;;;;;;5077564;28;20892;-68
2022/07/21 12:19:10;;;;;;;6.57;5.97;;;26.90;99.90;;;;;;5065524;28;20486;-69
2022/07/21 12:21:45;;;;;;;4.73;4.63;;;26.90;99.90;;;;;;5071398;28;20559;-68
2022/07/21 12:24:12;;;;;;;5.50;5.10;;;27.10;99.90;;;;;;5065468;28;20950;-68
2022/07/21 12:26:38;;;;;;;4.83;4.63;;;27.30;99.90;;;;;;5073152;28;20999;-68
2022/07/21 12:29:06;;;;;;;3.90;3.80;;;27.50;99.90;;;;;;5066131;28;20525;-67
2022/07/21 12:31:36;;;;;;;4.07;3.97;;;27.50;99.90;;;;;;5062258;28;20525;-68
2022/07/21 12:34:12;;;;;;;5.00;4.80;;;27.40;99.90;;;;;;5062662;28;20479;-68
2022/07/21 12:36:41;;;;;;;5.13;4.93;;;27.30;99.90;;;;;;5063672;28;21013;-67
2022/07/21 12:41:59;;;;;;;3.60;3.50;;;27.30;99.90;;;;;;5065482;28;20468;-68
2022/07/21 12:44:29;;;;;;;3.80;3.70;;;27.40;99.90;;;;;;5071337;28;20460;-67
2022/07/21 12:46:56;;;;;;;4.20;4.00;;;27.50;99.90;;;;;;5068759;28;20483;-68
2022/07/21 12:49:23;;;;;;;4.93;4.73;;;27.50;99.90;;;;;;5064163;28;20863;-68
2022/07/21 12:51:56;;;;;;;3.93;3.83;;;27.50;99.90;;;;;;5060930;28;20867;-68
2022/07/21 12:54:23;;;;;;;4.40;4.30;;;27.60;99.90;;;;;;5050892;28;20495;-67
2022/07/21 12:56:50;;;;;;;4.53;4.40;;;27.50;99.90;;;;;;5052903;28;20507;-69
2022/07/21 12:59:16;;;;;;;5.47;5.30;;;27.40;99.90;;;;;;5050777;28;20872;-68
2022/07/21 13:01:45;;;;;;;4.13;3.93;;;27.60;99.90;;;;;;5051040;28;20485;-67
2022/07/21 13:04:11;;;;;;;4.40;4.30;;;27.60;99.90;;;;;;5051977;28;20467;-68
2022/07/21 13:06:38;;;;;;;4.20;4.10;;;27.40;99.90;;;;;;5054419;28;20492;-68
2022/07/21 13:09:05;;;;;;;6.10;5.10;;;27.20;99.90;;;;;;5052328;28;20459;-68
2022/07/21 13:11:32;;;;;;;4.30;4.20;;;27.10;99.90;;;;;;5046497;28;20491;-68
2022/07/21 13:14:02;;;;;;;4.60;4.50;;;27.00;99.90;;;;;;5052061;28;20470;-69
2022/07/21 13:16:29;;;;;;;4.10;4.00;;;27.20;99.90;;;;;;5051585;28;20514;-69
2022/07/21 13:18:58;;;;;;;3.97;3.77;;;27.30;99.90;;;;;;5051401;28;20934;-68
2022/07/21 13:21:24;;;;;;;4.33;4.23;;;27.50;99.90;;;;;;5046574;28;20494;-69
2022/07/21 13:23:51;;;;;;;4.47;4.37;;;27.60;99.90;;;;;;5049890;28;20468;-68
2022/07/21 13:26:18;;;;;;;3.80;3.70;;;27.60;99.90;;;;;;5050684;28;20492;-68
2022/07/21 13:28:44;;;;;;;4.97;4.40;;;27.70;99.90;;;;;;5050824;28;21019;-69
2022/07/21 13:31:11;;;;;;;4.10;3.90;;;27.60;99.90;;;;;;5049784;28;20925;-68
2022/07/21 13:33:38;;;;;;;5.80;5.50;;;27.60;99.90;;;;;;5050813;28;20465;-69
2022/07/21 13:36:08;;;;;;;4.20;4.10;;;27.50;99.90;;;;;;5051193;28;20493;-68
2022/07/21 13:38:35;;;;;;;4.10;4.00;;;26.80;99.90;;;;;;5050765;28;20483;-68
2022/07/21 13:41:02;;;;;;;3.93;3.93;;;27.30;99.90;;;;;;5048635;28;20511;-68
2022/07/21 13:43:28;;;;;;;4.53;4.23;;;27.20;99.90;;;;;;5051669;28;20572;-67
2022/07/21 13:45:55;;;;;;;3.60;3.40;;;27.00;99.90;;;;;;5050978;28;20539;-68
2022/07/21 13:48:22;;;;;;;3.10;2.97;;;26.80;99.90;;;;;;5050882;28;20472;-68
2022/07/21 13:50:48;;;;;;;3.50;3.30;;;26.80;99.90;;;;;;5050544;28;20531;-68
2022/07/21 13:53:17;;;;;;;3.17;3.00;;;26.90;99.90;;;;;;5050115;28;20468;-68
2022/07/21 13:55:44;;;;;;;3.20;3.07;;;27.00;99.90;;;;;;5050537;28;20484;-67
2022/07/21 13:58:10;;;;;;;2.70;2.70;;;27.00;99.90;;;;;;5051076;28;20976;-68
2022/07/21 14:00:37;;;;;;;2.93;2.93;;;26.90;99.90;;;;;;5051889;28;20481;-68
2022/07/21 14:03:04;;;;;;;2.80;2.80;;;26.90;99.90;;;;;;5051206;28;20505;-69
2022/07/21 14:05:31;;;;;;;3.30;3.30;;;26.90;99.90;;;;;;5051843;28;20488;-68
2022/07/21 14:07:57;;;;;;;3.70;3.47;;;26.80;99.90;;;;;;5049773;28;20504;-68
2022/07/21 14:10:25;;;;;;;2.57;2.57;;;26.80;99.90;;;;;;5051230;28;20506;-68
2022/07/21 14:12:52;;;;;;;2.60;2.60;;;27.00;99.90;;;;;;5048263;28;20517;-68
2022/07/21 14:15:19;;;;;;;2.67;2.67;;;27.20;99.90;;;;;;5051544;28;20461;-68
2022/07/21 14:17:46;;;;;;;2.67;2.67;;;27.60;99.90;;;;;;5049485;28;20464;-67
2022/07/21 14:20:13;;;;;;;3.20;3.20;;;27.80;99.90;;;;;;5053011;28;20843;-67
2022/07/21 14:22:40;;;;;;;2.47;2.47;;;27.80;99.90;;;;;;5049302;28;20464;-68
2022/07/21 14:25:20;;;;;;;2.83;2.83;;;27.60;99.90;;;;;;5050506;28;20456;-68
2022/07/21 14:27:49;;;;;;;2.83;2.83;;;27.60;99.90;;;;;;5043442;28;20464;-68
2022/07/21 14:30:17;;;;;;;3.00;3.00;;;27.50;99.90;;;;;;5052437;28;20985;-69
2022/07/21 14:32:44;;;;;;;2.87;2.87;;;27.30;99.90;;;;;;5047204;28;20460;-67
2022/07/21 14:35:11;;;;;;;2.83;2.83;;;27.10;99.90;;;;;;5052427;28;20453;-68
2022/07/21 14:37:38;;;;;;;2.90;2.90;;;27.00;99.90;;;;;;5050828;28;21141;-68
2022/07/21 14:40:06;;;;;;;2.60;2.60;;;26.90;99.90;;;;;;5060310;28;20468;-68
2022/07/21 14:42:33;;;;;;;2.97;2.87;;;26.90;99.90;;;;;;5052694;28;20464;-68
2022/07/21 14:45:01;;;;;;;3.87;3.60;;;26.70;99.90;;;;;;5051286;28;20460;-68
2022/07/21 14:47:29;;;;;;;3.30;3.10;;;26.70;99.90;;;;;;5048983;28;20532;-68
2022/07/21 14:49:56;;;;;;;5.10;4.90;;;26.50;99.90;;;;;;5051101;28;20464;-67
2022/07/21 14:52:23;;;;;;;4.40;4.20;;;26.10;99.90;;;;;;5049557;28;20487;-67
2022/07/21 14:54:50;;;;;;;5.40;5.00;;;25.30;99.90;;;;;;5054569;28;20525;-68
2022/07/21 14:57:16;;;;;;;5.70;5.30;;;24.70;99.90;;;;;;5070688;28;20486;-67
2022/07/21 14:59:43;;;;;;;6.33;5.93;;;24.20;99.90;;;;;;5057310;28;20532;-68
2022/07/21 15:02:12;;;;;;;6.53;6.10;;;23.50;99.90;;;;;;5049129;28;20490;-69
2022/07/21 15:04:38;;;;;;;7.20;6.50;;;23.00;99.90;;;;;;5048949;28;20466;-68
2022/07/21 15:07:06;;;;;;;6.83;6.33;;;22.50;99.90;;;;;;5047851;28;20489;-69
2022/07/21 15:09:33;;;;;;;6.50;6.20;;;22.30;99.90;;;;;;5048779;28;20466;-68
2022/07/21 15:11:59;;;;;;;7.60;7.10;;;22.10;99.90;;;;;;5040273;28;20472;-69
2022/07/21 15:14:26;;;;;;;8.00;6.87;;;22.00;99.90;;;;;;5047411;28;20469;-69
2022/07/21 15:16:53;;;;;;;13.07;8.10;;;21.90;99.90;;;;;;5051674;28;20496;-70
2022/07/21 15:19:21;;;;;;;8.07;7.40;;;21.80;99.90;;;;;;5049423;28;20464;-70
2022/07/21 15:21:48;;;;;;;11.00;8.00;;;21.40;99.90;;;;;;5047240;28;20516;-70
2022/07/21 15:24:15;;;;;;;8.30;7.50;;;21.10;99.90;;;;;;5051536;28;20463;-71
2022/07/21 15:26:41;;;;;;;9.13;8.23;;;20.90;99.90;;;;;;5047717;28;20491;-70
2022/07/21 15:29:08;;;;;;;9.30;8.70;;;20.90;99.90;;;;;;5044647;28;20472;-70
2022/07/21 15:31:35;;;;;;;7.87;7.27;;;20.80;99.90;;;;;;5043201;28;20476;-70
2022/07/21 15:34:02;;;;;;;10.80;9.90;;;20.70;99.90;;;;;;5045284;28;20496;-70
2022/07/21 15:36:30;;;;;;;9.53;8.80;;;20.60;99.90;;;;;;5047283;28;20495;-70
2022/07/21 15:38:58;;;;;;;8.70;8.10;;;20.60;99.90;;;;;;5045682;28;20476;-70
2022/07/21 15:41:25;;;;;;;10.00;9.10;;;20.60;99.90;;;;;;5045600;28;20498;-71
2022/07/21 15:43:51;;;;;;;10.37;9.47;;;20.50;99.90;;;;;;5048070;28;20705;-70
2022/07/21 15:46:18;;;;;;;10.40;9.60;;;20.50;99.90;;;;;;5054255;28;20506;-70
2022/07/21 15:48:45;;;;;;;12.00;10.80;;;20.50;99.90;;;;;;5046123;28;20471;-70
2022/07/21 15:51:11;;;;;;;10.47;9.67;;;20.60;99.90;;;;;;5046699;28;20486;-70
2022/07/21 15:53:40;;;;;;;12.30;11.07;;;20.70;99.90;;;;;;5047563;28;20956;-70
2022/07/21 15:56:07;;;;;;;12.67;11.57;;;20.70;99.90;;;;;;5041032;28;20504;-69
2022/07/21 15:58:34;;;;;;;11.20;10.30;;;20.70;99.90;;;;;;5041450;28;20471;-70
2022/07/21 16:01:01;;;;;;;12.50;11.40;;;20.70;99.90;;;;;;5045393;28;20481;-70
2022/07/21 16:03:28;;;;;;;12.03;11.07;;;20.70;99.90;;;;;;5048533;28;20518;-70
2022/07/21 16:05:54;;;;;;;13.27;12.17;;;20.70;99.90;;;;;;5039057;28;20526;-70
2022/07/21 16:08:21;;;;;;;12.87;11.77;;;20.80;99.90;;;;;;5047598;28;20472;-70
2022/07/21 16:10:49;;;;;;;12.10;11.10;;;20.90;99.90;;;;;;5046877;28;20957;-70
2022/07/21 16:13:16;;;;;;;12.73;11.63;;;21.00;99.90;;;;;;5046654;28;21322;-69
2022/07/21 16:15:43;;;;;;;11.13;10.43;;;21.00;99.90;;;;;;5044487;28;20582;-70
2022/07/21 16:18:09;;;;;;;12.40;11.23;;;21.00;99.90;;;;;;5044131;28;20472;-69
2022/07/21 16:20:36;;;;;;;11.27;10.47;;;21.10;99.90;;;;;;5047994;28;20469;-69
2022/07/21 16:23:03;;;;;;;12.20;11.20;;;21.20;99.90;;;;;;5048119;28;20864;-70
2022/07/21 16:25:29;;;;;;;12.33;11.50;;;21.30;99.90;;;;;;5045736;28;20522;-71
2022/07/21 16:27:57;;;;;;;12.73;11.80;;;21.50;99.90;;;;;;5049136;28;20533;-69
2022/07/21 16:30:24;;;;;;;12.43;11.43;;;21.60;99.90;;;;;;5049114;28;20545;-70
2022/07/21 16:32:51;;;;;;;12.67;11.57;;;21.70;99.90;;;;;;5051068;28;20979;-70
2022/07/21 16:35:17;;;;;;;11.63;10.93;;;21.90;99.90;;;;;;5050380;28;20846;-71
2022/07/21 16:37:46;;;;;;;11.97;11.07;;;22.10;99.90;;;;;;5047668;28;20488;-70
2022/07/21 16:40:17;;;;;;;11.50;10.50;;;22.10;99.90;;;;;;5051576;28;20933;-70
2022/07/21 16:42:44;;;;;;;10.80;9.97;;;22.10;99.90;;;;;;5049880;28;20493;-70
2022/07/21 16:45:12;;;;;;;11.13;10.40;;;22.10;99.90;;;;;;5049768;28;20465;-69
2022/07/21 16:47:39;;;;;;;11.77;10.87;;;22.20;99.90;;;;;;5046713;28;20534;-70
2022/07/21 16:50:07;;;;;;;11.60;10.80;;;22.30;99.90;;;;;;5048570;28;20515;-67
2022/07/21 16:52:33;;;;;;;12.33;11.43;;;22.40;99.90;;;;;;5057722;28;20465;-67
2022/07/21 16:55:00;;;;;;;11.47;10.67;;;22.30;99.90;;;;;;5053127;28;20814;-68
2022/07/21 16:57:28;;;;;;;10.80;10.00;;;22.40;99.90;;;;;;5049785;28;20573;-68
2022/07/21 16:59:55;;;;;;;12.60;11.60;;;22.50;99.90;;;;;;5050492;28;20524;-68
2022/07/21 17:02:23;;;;;;;13.60;12.23;;;22.60;99.90;;;;;;5055317;28;20491;-68
2022/07/21 17:04:50;;;;;;;12.47;11.37;;;22.70;99.90;;;;;;5049781;28;20470;-69
2022/07/21 17:07:18;;;;;;;13.17;12.10;;;22.80;99.90;;;;;;5050061;28;20995;-69
2022/07/21 17:09:45;;;;;;;13.73;12.63;;;22.80;99.90;;;;;;5052416;28;20515;-68
2022/07/21 17:12:12;;;;;;;13.27;12.10;;;22.80;99.90;;;;;;5052872;28;20935;-69
2022/07/21 17:14:38;;;;;;;11.53;10.73;;;22.90;99.90;;;;;;5050062;28;20465;-69
2022/07/21 17:17:06;;;;;;;12.90;11.90;;;22.80;99.90;;;;;;5050578;28;20480;-68
2022/07/21 17:19:34;;;;;;;13.07;12.10;;;22.90;99.90;;;;;;5050975;28;20575;-69
2022/07/21 17:22:01;;;;;;;12.30;11.47;;;22.90;99.90;;;;;;5046666;28;20852;-68
2022/07/21 17:24:27;;;;;;;13.80;12.60;;;22.90;99.90;;;;;;5049211;28;20539;-69
2022/07/21 17:26:54;;;;;;;12.73;11.63;;;23.00;99.90;;;;;;5050183;28;20500;-68
2022/07/21 17:29:21;;;;;;;12.63;11.73;;;23.00;99.90;;;;;;5050735;28;20977;-69
2022/07/21 17:31:48;;;;;;;14.43;13.30;;;22.90;99.90;;;;;;5052215;28;20937;-68
2022/07/21 17:34:14;;;;;;;13.50;12.40;;;22.80;99.90;;;;;;5050069;28;20470;-68
2022/07/21 17:36:42;;;;;;;13.97;12.67;;;22.70;99.90;;;;;;5050757;28;20497;-69
2022/07/21 17:39:09;;;;;;;14.40;13.10;;;22.50;99.90;;;;;;5048111;28;20959;-69
2022/07/21 17:41:36;;;;;;;13.97;12.87;;;22.40;99.90;;;;;;5050948;28;20484;-69
2022/07/21 17:44:03;;;;;;;13.43;12.43;;;22.30;99.90;;;;;;5053867;28;20527;-68
2022/07/21 17:46:30;;;;;;;14.27;13.20;;;22.30;99.90;;;;;;5050245;28;20488;-69
2022/07/21 17:48:57;;;;;;;15.73;14.33;;;22.30;99.90;;;;;;5053035;28;20464;-69
2022/07/21 17:51:24;;;;;;;15.00;13.80;;;22.20;99.90;;;;;;5047990;28;20487;-68
2022/07/21 17:53:52;;;;;;;13.50;12.50;;;22.20;99.90;;;;;;5052272;28;20466;-69
2022/07/21 17:56:18;;;;;;;14.27;13.07;;;22.10;99.90;;;;;;5051707;28;20488;-69
2022/07/21 17:58:44;;;;;;;14.77;13.67;;;22.10;99.90;;;;;;5052062;28;20460;-69
2022/07/21 18:01:12;;;;;;;13.10;12.20;;;22.10;99.90;;;;;;5059545;28;20471;-68
2022/07/21 18:03:39;;;;;;;14.90;13.77;;;22.00;99.90;;;;;;5061444;28;20290;-69
2022/07/21 18:06:06;;;;;;;13.27;12.23;;;22.10;99.90;;;;;;5057902;28;20487;-69
2022/07/21 18:08:33;;;;;;;16.27;15.03;;;22.10;99.90;;;;;;5071584;28;20544;-69
2022/07/21 18:11:03;;;;;;;14.73;13.53;;;22.10;99.90;;;;;;5046028;28;20461;-69
2022/07/21 18:13:30;;;;;;;14.07;12.80;;;22.10;99.90;;;;;;5050176;28;20535;-69
2022/07/21 18:15:56;;;;;;;14.40;13.30;;;22.10;99.90;;;;;;5054507;28;20900;-69
2022/07/21 18:18:23;;;;;;;13.80;12.90;;;22.10;99.90;;;;;;5071158;28;20459;-69
2022/07/21 18:20:50;;;;;;;12.93;12.13;;;22.10;99.90;;;;;;5069915;28;20455;-69
2022/07/21 18:23:17;;;;;;;13.93;12.83;;;22.10;99.90;;;;;;5051655;28;20488;-71
2022/07/21 18:25:44;;;;;;;14.30;13.07;;;22.00;99.90;;;;;;5050120;28;20570;-68
2022/07/21 18:28:14;;;;;;;12.43;11.63;;;21.90;99.90;;;;;;5045248;28;20456;-69
2022/07/21 18:30:41;;;;;;;13.20;12.30;;;21.90;99.90;;;;;;5041528;28;20499;-69
2022/07/21 18:33:08;;;;;;;12.13;11.37;;;21.90;99.90;;;;;;5040353;28;20490;-71
2022/07/21 18:35:35;;;;;;;11.53;10.63;;;21.80;99.90;;;;;;5045933;28;20855;-69
2022/07/21 18:38:02;;;;;;;12.93;11.97;;;21.80;99.90;;;;;;5047998;28;20487;-69
2022/07/21 18:40:29;;;;;;;12.10;11.30;;;21.70;99.90;;;;;;5053012;28;20562;-69
2022/07/21 18:42:58;;;;;;;13.13;12.13;;;21.60;99.90;;;;;;5048161;28;20487;-68
2022/07/21 18:45:26;;;;;;;12.50;11.80;;;21.50;99.90;;;;;;5049383;28;20472;-69
2022/07/21 18:47:54;;;;;;;12.30;11.30;;;21.50;99.90;;;;;;5045201;28;20492;-68
2022/07/21 18:50:21;;;;;;;12.53;11.67;;;21.40;99.90;;;;;;5051396;28;20831;-69
2022/07/21 18:52:48;;;;;;;12.50;11.70;;;21.30;99.90;;;;;;5049745;28;20518;-68
2022/07/21 18:55:15;;;;;;;13.47;12.53;;;21.30;99.90;;;;;;5049699;28;20478;-68
2022/07/21 18:57:42;;;;;;;13.00;12.20;;;21.30;99.90;;;;;;5050291;28;20585;-69
2022/07/21 19:00:12;;;;;;;12.77;11.87;;;21.20;99.90;;;;;;5049249;28;20462;-68
2022/07/21 19:02:40;;;;;;;12.70;11.80;;;21.20;99.90;;;;;;5049253;28;20492;-69
2022/07/21 19:05:08;;;;;;;12.40;11.60;;;21.20;99.90;;;;;;5048654;28;20463;-68
2022/07/21 19:07:34;;;;;;;11.97;11.17;;;21.10;99.90;;;;;;5049020;28;20556;-69
2022/07/21 19:10:01;;;;;;;12.80;11.90;;;21.10;99.90;;;;;;5056365;28;20555;-68
2022/07/21 19:12:28;;;;;;;12.30;11.50;;;21.00;99.90;;;;;;5048710;28;20564;-68
2022/07/21 19:14:54;;;;;;;13.57;12.50;;;21.00;99.90;;;;;;5049366;28;20482;-68
2022/07/21 19:17:21;;;;;;;12.20;11.40;;;21.00;99.90;;;;;;5048333;28;20498;-67
2022/07/21 19:19:49;;;;;;;11.93;11.23;;;21.00;99.90;;;;;;5048912;28;20468;-69
2022/07/21 19:22:16;;;;;;;12.40;11.47;;;21.00;99.90;;;;;;5052515;28;20475;-66
2022/07/21 19:24:43;;;;;;;11.33;10.63;;;20.90;99.90;;;;;;5046433;28;20461;-70
2022/07/21 19:27:10;;;;;;;12.73;11.73;;;20.90;99.90;;;;;;5060254;28;20493;-69
2022/07/21 19:29:37;;;;;;;12.30;11.43;;;20.90;99.90;;;;;;5049603;28;20525;-69
2022/07/21 19:32:04;;;;;;;11.40;10.60;;;20.90;99.90;;;;;;5045302;28;20929;-70
2022/07/21 19:34:31;;;;;;;11.73;11.03;;;20.80;99.90;;;;;;5044341;28;20468;-70
2022/07/21 19:36:59;;;;;;;11.90;11.03;;;20.70;99.90;;;;;;5046037;28;20513;-69
2022/07/21 19:39:26;;;;;;;11.07;10.37;;;20.70;99.90;;;;;;5043294;28;20995;-68
2022/07/21 19:41:52;;;;;;;10.27;9.67;;;20.70;99.90;;;;;;5047378;28;20527;-69
2022/07/21 19:44:19;;;;;;;10.83;9.97;;;20.60;99.90;;;;;;5049413;28;20460;-69
2022/07/21 19:46:47;;;;;;;10.87;9.97;;;20.60;99.90;;;;;;5047612;28;20495;-68
2022/07/21 19:49:13;;;;;;;12.27;11.27;;;20.60;99.90;;;;;;5045686;28;20785;-69
2022/07/21 19:51:40;;;;;;;11.60;10.80;;;20.60;99.90;;;;;;5045681;28;20538;-68
2022/07/21 19:54:08;;;;;;;11.97;11.07;;;20.60;99.90;;;;;;5056006;28;20486;-69
2022/07/21 19:56:35;;;;;;;12.07;11.13;;;20.50;99.90;;;;;;5047839;28;20483;-69
2022/07/21 19:59:02;;;;;;;12.40;11.50;;;20.50;99.90;;;;;;5051908;28;20475;-69
2022/07/21 20:01:29;;;;;;;11.53;10.83;;;20.50;99.90;;;;;;5047818;28;20474;-69
2022/07/21 20:03:56;;;;;;;11.90;11.00;;;20.40;99.90;;;;;;5056579;28;20888;-70
2022/07/21 20:06:22;;;;;;;11.10;10.40;;;20.40;99.90;;;;;;5049766;28;20495;-68
2022/07/21 20:08:49;;;;;;;11.13;10.33;;;20.40;99.90;;;;;;5047156;28;20463;-70
2022/07/21 20:11:17;;;;;;;11.07;10.27;;;20.30;99.90;;;;;;5053317;28;20460;-70
2022/07/21 20:13:44;;;;;;;11.03;10.20;;;20.30;99.90;;;;;;5055295;28;20464;-70
2022/07/21 20:16:11;;;;;;;11.50;10.70;;;20.30;99.90;;;;;;5050053;28;20482;-69
2022/07/21 20:18:37;;;;;;;11.67;10.87;;;20.20;99.90;;;;;;5054006;28;20516;-69
2022/07/21 20:21:04;;;;;;;11.77;10.77;;;20.20;99.90;;;;;;5052500;28;20467;-68
2022/07/21 20:23:31;;;;;;;11.97;10.97;;;20.20;99.90;;;;;;5058823;28;20507;-69
2022/07/21 20:25:58;;;;;;;11.53;10.83;;;20.20;99.90;;;;;;5052825;28;20488;-69
2022/07/21 20:28:26;;;;;;;11.63;10.73;;;20.10;99.90;;;;;;5065879;28;20467;-69
2022/07/21 20:30:53;;;;;;;11.97;11.00;;;20.10;99.90;;;;;;5054171;28;20879;-69
2022/07/21 20:33:20;;;;;;;11.87;10.97;;;20.10;99.90;;;;;;5053342;28;20462;-69
2022/07/21 20:35:46;;;;;;;12.73;11.83;;;20.00;99.90;;;;;;5052300;28;20488;-69
2022/07/21 20:38:13;;;;;;;10.80;10.20;;;20.00;99.90;;;;;;5059020;28;20467;-69
2022/07/21 20:40:40;;;;;;;11.80;11.00;;;20.00;99.90;;;;;;5051766;28;20475;-69
2022/07/21 20:43:09;;;;;;;10.60;9.90;;;19.90;99.90;;;;;;5060084;28;21002;-68
2022/07/21 20:45:38;;;;;;;11.37;10.67;;;19.90;99.90;;;;;;5053168;28;21044;-68
2022/07/21 20:48:04;;;;;;;13.17;12.27;;;19.90;99.90;;;;;;5058834;28;20478;-68
2022/07/21 20:50:31;;;;;;;10.57;9.87;;;19.80;99.90;;;;;;5052091;28;21022;-67
2022/07/21 20:52:58;;;;;;;11.90;11.07;;;19.80;99.90;;;;;;5056924;28;20466;-67
2022/07/21 20:55:25;;;;;;;12.93;11.93;;;19.80;99.90;;;;;;5053918;28;20972;-68
2022/07/21 20:57:52;;;;;;;11.63;10.80;;;19.70;99.90;;;;;;5050334;28;20467;-68
